RS-0005 weather

Aerodrom Vojka Nova Pazova
Serbia

Public forecast

Using degrees Celsius for public forecast. Weather courtesy of forecast.io.

Closest aviation weather report (METAR) to Aerodrom Vojka Nova Pazova

Closest report is Batajnica Air Base, 3.7 nm (6.8 km) E. Retrieved 2019/12/08 07:30 UTC (10 minutes ago):

LYBT 080730Z VRB01KT 0100 R12/0175N R30/0150N FG VV001 01/01 Q1021 NOSIG

Closest aviation forecast (TAF) to Aerodrom Vojka Nova Pazova

Closest forecast is Batajnica Air Base, 3.7 nm (6.8 km) E. Retrieved 2019/12/08 06:00 UTC (2 hours ago):

TAF COR LYBT 080500Z 0806/0906 20003KT 0200 FG VV001 TX06/0813Z TN01/0906Z BECMG 0809/0812 4000 BR BKN006 BECMG 0818/0820 0600 FG BKN003 TEMPO 0900/0906 0200 VV001